• Join FlightAware (Why Join?)
  • Login
  • US Flag 
08:54PM EDT


 

Airport Tracker/Info


-or-


 

Live Flight TrackerFlight Track Log ✈ AWE3827 ✈ 05-May-2013 ✈ KCLT - KBNA

Flight Track Log - Related Links

Times and Time Zones

All times are in EDT time to prevent confusion due to time zone crossing. See the AWE3827 flight status page for this flight to view local times or setup timezone preferences in your user account.

Time Position Orientation Groundspeed Altitude Reporting Facility
EDT Latitude Longitude Course Direction KTS MPH feet Rate Location/Type
08:35AM 35.2555 -81.1493 282° West  Level FlightAware Approximate
08:36AM 35.2490 -81.2578 242° Southwest  Level FlightAware Approximate
08:37AM 35.2039 -81.3589 239° Southwest  Level FlightAware Approximate
08:38AM 35.1548 -81.4571 239° Southwest  Level FlightAware Approximate
08:39AM 35.1334 -81.5648 270° West  Level FlightAware Approximate
08:40AM 35.1285 -81.6792 259° West  Level FlightAware Approximate
08:41AM 35.1140 -81.7927 266° West  Level FlightAware Approximate
08:42AM 35.1068 -81.9074 266° West  Level FlightAware Approximate
08:43AM 35.0994 -82.0220 266° West  Level FlightAware Approximate
08:44AM 35.0919 -82.1367 265° West  Level FlightAware Approximate
08:45AM 35.0844 -82.2513 265° West  Level FlightAware Approximate
08:46AM 35.1309 -82.3472 300° West  Level FlightAware Approximate
08:47AM 35.1776 -82.4471 300° West  Level FlightAware Approximate
08:48AM 35.2242 -82.5471 300° West  Level FlightAware Approximate
08:49AM 35.2738 -82.6451 302° West  Level FlightAware Approximate
08:50AM 35.3239 -82.7427 302° West  Level FlightAware Approximate
08:51AM 35.3740 -82.8403 302° West  Level FlightAware Approximate
08:52AM 35.4240 -82.9381 302° West  Level FlightAware Approximate
08:53AM 35.4739 -83.0360 302° West  Level FlightAware Approximate
08:54AM 35.5237 -83.1341 302° West  Level FlightAware Approximate
08:55AM 35.5735 -83.2323 302° West  Level FlightAware Approximate
08:56AM 35.6232 -83.3306 302° West  Level FlightAware Approximate
08:57AM 35.6728 -83.4290 302° West  Level FlightAware Approximate
08:58AM 35.7223 -83.5275 302° West  Level FlightAware Approximate
08:59AM 35.7717 -83.6261 302° West  Level FlightAware Approximate
09:00AM 35.8211 -83.7249 302° West  Level FlightAware Approximate
09:01AM 35.8704 -83.8238 302° West  Level FlightAware Approximate
09:02AM 35.8920 -83.9286 258° West  Level FlightAware Approximate
09:03AM 35.8719 -84.0420 258° West  Level FlightAware Approximate
09:04AM 35.8516 -84.1554 258° West  Level FlightAware Approximate
09:05AM 35.8313 -84.2688 258° West  Level FlightAware Approximate
09:06AM 35.8108 -84.3820 257° West  Level FlightAware Approximate
09:07AM 35.7903 -84.4953 257° West  Level FlightAware Approximate
09:08AM 35.7726 -84.6092 260° West  Level FlightAware Approximate
09:09AM 35.7563 -84.7234 260° West  Level FlightAware Approximate
09:10AM 35.7399 -84.8375 260° West  Level FlightAware Approximate
09:11AM 35.7236 -84.9517 260° West  Level FlightAware Approximate
09:12AM 35.7037 -85.0649 256° West  Level FlightAware Approximate
09:13AM 35.6842 -85.1783 258° West  Level FlightAware Approximate
09:14AM 35.6648 -85.2916 255° West  Level FlightAware Approximate
09:15AM 35.6400 -85.4033 255° West  Level FlightAware Approximate
09:16AM 35.6153 -85.5150 255° West  Level FlightAware Approximate
09:17AM 35.5905 -85.6267 255° West  Level FlightAware Approximate
09:18AM 35.5662 -85.7384 263° West  Level FlightAware Approximate
09:19AM 35.5547 -85.8532 263° West  Level FlightAware Approximate
09:20AM 35.5868 -85.9515 311° West  Level FlightAware Approximate
09:21AM 35.6457 -86.0414 302° West  Level FlightAware Approximate
09:22AM 35.7086 -86.1253 321° Northwest  Level FlightAware Approximate
09:23AM 35.7714 -86.2095 302° West  Level FlightAware Approximate
09:24AM 35.8061 -86.3167 289° West  Level FlightAware Approximate
09:25AM 35.8369 -86.4264 294° West  Level FlightAware Approximate
09:26AM 35.8754 -86.5323 294° West  Level FlightAware Approximate